Time;durP1;ratioP1;P1;durP2;ratioP2;P2;SDS_P1;SDS_P2;PMS_P1;PMS_P2;Temp;Humidity;BMP_temperature;BMP_pressure;BME280_temperature;BME280_humidity;BME280_pressure;Samples;Min_cycle;Max_cycle;Signal;HPM_P1;HPM_P2
2023/07/20 00:02:15;;;;;;;5.72;3.40;;;;;;;29.62;42.02;99008.22;4484851;32;34007;-63
2023/07/20 00:04:43;;;;;;;8.80;3.80;;;;;;;29.61;42.01;99003.81;4484623;32;35063;-63
2023/07/20 00:07:11;;;;;;;6.85;3.97;;;;;;;29.59;42.00;99004.13;4484472;32;33339;-63
2023/07/20 00:09:38;;;;;;;8.52;3.75;;;;;;;29.60;41.97;99007.69;4484351;32;34882;-63
2023/07/20 00:12:08;;;;;;;7.65;4.37;;;;;;;29.60;41.94;99010.44;4484645;32;34865;-63
2023/07/20 00:14:35;;;;;;;6.45;3.58;;;;;;;29.58;41.86;98994.22;4484549;32;33775;-63
2023/07/20 00:17:03;;;;;;;8.80;3.75;;;;;;;29.59;41.81;98997.81;4484609;32;34518;-63
2023/07/20 00:19:32;;;;;;;9.98;3.72;;;;;;;29.57;41.80;98992.59;4484356;32;35338;-63
2023/07/20 00:21:59;;;;;;;7.37;3.92;;;;;;;29.57;41.80;98981.59;4484165;32;34028;-63
2023/07/20 00:24:27;;;;;;;6.90;3.75;;;;;;;29.57;41.83;98989.84;4484505;32;34270;-63
2023/07/20 00:26:55;;;;;;;8.80;3.65;;;;;;;29.56;41.76;98985.44;4469202;32;33135;-63
2023/07/20 00:29:22;;;;;;;5.72;3.42;;;;;;;29.55;41.75;98991.22;4484276;32;33768;-63
2023/07/20 00:31:50;;;;;;;6.03;3.20;;;;;;;29.54;41.79;98997.81;4484256;32;33952;-62
2023/07/20 00:34:18;;;;;;;7.05;3.90;;;;;;;29.55;41.80;99005.78;4484323;32;34938;-64
2023/07/20 00:36:46;;;;;;;4.87;3.10;;;;;;;29.55;41.78;99008.53;4484479;32;34343;-62
2023/07/20 00:39:13;;;;;;;8.65;3.87;;;;;;;29.54;41.83;99004.13;4484280;32;34870;-63
2023/07/20 00:41:42;;;;;;;6.75;3.40;;;;;;;29.53;41.81;99004.41;4484393;32;34045;-63
2023/07/20 00:44:09;;;;;;;8.30;3.95;;;;;;;29.53;41.70;98998.94;4484159;32;34000;-63
2023/07/20 00:46:38;;;;;;;6.87;4.03;;;;;;;29.52;41.66;98998.09;4484326;32;33692;-63
2023/07/20 00:49:06;;;;;;;7.78;3.20;;;;;;;29.51;41.64;98998.38;4483060;32;33479;-60
2023/07/20 00:51:33;;;;;;;6.53;3.20;;;;;;;29.49;41.61;98993.19;4484436;32;33642;-63
2023/07/20 00:54:02;;;;;;;6.80;3.80;;;;;;;29.48;41.73;98986.03;4483056;32;34448;-63
2023/07/20 00:56:30;;;;;;;6.97;3.35;;;;;;;29.48;41.71;98983.28;4470348;32;32493;-63
2023/07/20 00:58:58;;;;;;;8.10;3.97;;;;;;;29.48;41.77;98983.28;4484230;31;33854;-63
2023/07/20 01:01:25;;;;;;;7.60;3.33;;;;;;;29.48;41.71;98980.53;4500109;31;33903;-63
2023/07/20 01:03:53;;;;;;;5.75;3.53;;;;;;;29.48;41.76;98964.06;4499757;31;33780;-63
2023/07/20 01:06:24;;;;;;;9.70;3.80;;;;;;;29.48;41.71;98964.06;4500022;31;34260;-64
2023/07/20 01:08:55;;;;;;;6.57;3.45;;;;;;;29.47;41.68;98967.88;4499936;31;33885;-63
2023/07/20 01:11:44;;;;;;;6.22;3.45;;;;;;;29.46;41.75;98964.31;4499800;31;33957;-63
2023/07/20 01:14:12;;;;;;;8.10;3.70;;;;;;;29.46;41.77;98961.56;4482719;31;33606;-63
2023/07/20 01:16:39;;;;;;;11.60;4.15;;;;;;;29.47;41.73;98954.16;4499754;31;33671;-63
2023/07/20 01:19:07;;;;;;;8.30;3.65;;;;;;;29.46;41.80;98960.75;4499814;31;33825;-63
2023/07/20 01:22:14;;;;;;;6.85;3.47;;;;;;;29.47;41.85;98959.63;4499867;31;33660;-63
2023/07/20 01:25:08;;;;;;;8.57;3.30;;;;;;;29.50;41.83;98953.59;4482234;31;33613;-63
2023/07/20 01:28:01;;;;;;;5.62;3.70;;;;;;;29.46;41.91;98947.00;4498789;31;33514;-62
2023/07/20 01:30:50;;;;;;;6.53;3.28;;;;;;;29.44;41.97;98935.50;4499594;31;33440;-62
2023/07/20 01:33:18;;;;;;;6.90;3.40;;;;;;;29.45;41.99;98948.94;4499699;31;34772;-63
2023/07/20 01:35:50;;;;;;;7.35;3.97;;;;;;;29.42;42.04;98951.44;4498428;31;33743;-63
2023/07/20 01:38:18;;;;;;;7.85;3.22;;;;;;;29.40;42.12;98951.72;4485391;31;33864;-63
2023/07/20 01:40:47;;;;;;;6.05;3.03;;;;;;;29.40;42.01;98959.16;4498295;31;33623;-63
2023/07/20 01:43:15;;;;;;;8.20;3.90;;;;;;;29.41;42.00;98960.78;4498277;31;34710;-62
2023/07/20 01:45:43;;;;;;;6.97;2.87;;;;;;;29.39;42.04;98960.28;4498155;31;33706;-62
2023/07/20 01:48:13;;;;;;;6.32;3.45;;;;;;;29.39;41.99;98971.28;4498167;31;33967;-63
2023/07/20 01:50:41;;;;;;;6.20;3.20;;;;;;;29.39;41.92;98977.59;4499410;31;34644;-62
2023/07/20 01:53:09;;;;;;;4.82;3.03;;;;;;;29.38;41.98;98975.13;4499372;31;34785;-62
2023/07/20 01:55:37;;;;;;;5.87;3.03;;;;;;;29.38;42.02;98981.44;4499284;31;34869;-63
2023/07/20 01:58:05;;;;;;;7.78;3.40;;;;;;;29.37;41.99;98979.78;4499300;31;33391;-63
2023/07/20 02:00:33;;;;;;;7.20;3.55;;;;;;;29.37;41.98;98979.78;4487721;31;33777;-63
2023/07/20 02:03:01;;;;;;;6.53;3.40;;;;;;;29.38;41.99;98986.13;4483243;32;33542;-63
2023/07/20 02:05:28;;;;;;;8.25;3.40;;;;;;;29.37;42.01;98987.19;4483753;32;33939;-63
2023/07/20 02:07:58;;;;;;;6.97;3.70;;;;;;;29.38;42.06;98989.69;4483444;32;34436;-63
2023/07/20 02:10:26;;;;;;;6.93;3.67;;;;;;;29.37;42.05;98987.19;4483243;32;33911;-63
2023/07/20 02:12:54;;;;;;;7.90;3.50;;;;;;;29.38;42.05;98988.88;4483284;32;33912;-63
2023/07/20 02:15:22;;;;;;;7.65;3.50;;;;;;;29.37;42.08;98989.94;4483262;32;33875;-63
2023/07/20 02:17:51;;;;;;;6.60;3.15;;;;;;;29.36;42.05;98980.88;4483179;32;34107;-63
2023/07/20 02:20:19;;;;;;;5.90;3.30;;;;;;;29.37;42.00;98989.94;4483281;32;33916;-63
2023/07/20 02:22:46;;;;;;;6.68;3.33;;;;;;;29.35;41.99;98990.25;4483304;32;33927;-63
2023/07/20 02:25:14;;;;;;;7.28;3.42;;;;;;;29.34;41.89;98991.38;4483140;32;34179;-63
2023/07/20 02:27:42;;;;;;;5.78;3.10;;;;;;;29.33;41.77;98997.13;4483127;32;33581;-63
2023/07/20 02:30:10;;;;;;;7.07;3.10;;;;;;;29.33;41.76;99002.63;4482931;32;34001;-62
2023/07/20 02:32:38;;;;;;;6.32;3.20;;;;;;;29.30;41.73;98989.47;4498382;31;34811;-63
2023/07/20 02:35:06;;;;;;;7.93;3.85;;;;;;;29.28;41.63;99000.72;4484590;31;34934;-63
2023/07/20 02:37:33;;;;;;;6.82;3.87;;;;;;;29.27;41.49;99007.34;4498571;31;33177;-62
2023/07/20 02:40:01;;;;;;;7.05;3.90;;;;;;;29.19;41.74;98995.03;4498596;31;33865;-63
2023/07/20 02:42:30;;;;;;;8.05;3.62;;;;;;;29.17;41.88;98999.97;4498993;31;33981;-63
2023/07/20 02:44:57;;;;;;;8.07;3.85;;;;;;;29.16;41.99;98995.59;4484101;31;34172;-63
2023/07/20 02:47:25;;;;;;;8.13;3.62;;;;;;;29.16;42.09;99008.50;4498536;31;34278;-62
2023/07/20 02:49:54;;;;;;;7.18;3.72;;;;;;;29.14;42.16;99006.03;4485623;31;34258;-62
2023/07/20 02:52:23;;;;;;;7.00;3.45;;;;;;;29.15;42.16;99013.19;4486712;31;33600;-63
2023/07/20 02:54:50;;;;;;;6.65;3.80;;;;;;;29.16;42.11;99006.59;4500822;31;34204;-62
2023/07/20 02:57:18;;;;;;;7.43;3.75;;;;;;;29.15;41.89;99006.88;4486861;31;33349;-63
2023/07/20 02:59:46;;;;;;;7.93;3.58;;;;;;;29.12;41.76;99010.19;4500691;31;33943;-62
2023/07/20 03:02:13;;;;;;;9.35;3.65;;;;;;;29.11;41.87;99011.28;4500955;31;33991;-63
2023/07/20 03:04:41;;;;;;;8.00;3.58;;;;;;;29.08;41.91;99007.16;4500740;31;34953;-63
2023/07/20 03:07:09;;;;;;;8.05;4.20;;;;;;;29.06;41.83;99014.88;4500893;31;34348;-62
2023/07/20 03:09:36;;;;;;;10.02;4.00;;;;;;;29.05;41.95;99018.75;4501167;31;33878;-63
2023/07/20 03:12:05;;;;;;;7.55;3.65;;;;;;;29.05;41.94;99028.88;4500815;31;33656;-63
2023/07/20 03:14:32;;;;;;;8.02;3.45;;;;;;;29.03;42.00;99022.88;4500933;31;34618;-63
2023/07/20 03:17:00;;;;;;;9.02;3.80;;;;;;;29.05;41.97;99020.66;4486323;31;32548;-62
2023/07/20 03:19:28;;;;;;;10.02;3.97;;;;;;;29.03;41.97;99037.41;4500663;31;34544;-62
2023/07/20 03:21:55;;;;;;;11.63;4.00;;;;;;;29.01;41.95;99039.63;4500520;31;34835;-62
2023/07/20 03:24:23;;;;;;;8.48;3.65;;;;;;;29.00;41.98;99032.47;4500602;31;34165;-62
2023/07/20 03:26:51;;;;;;;8.27;3.95;;;;;;;29.01;41.95;99042.38;4500983;31;33595;-63
2023/07/20 03:29:19;;;;;;;7.95;3.72;;;;;;;28.97;41.82;99035.81;4500702;31;33152;-62
2023/07/20 03:31:46;;;;;;;6.07;3.22;;;;;;;28.95;41.75;99029.75;4500763;31;34746;-63
2023/07/20 03:34:14;;;;;;;10.35;3.92;;;;;;;28.91;41.79;99036.88;4500566;31;34320;-63
2023/07/20 03:36:42;;;;;;;8.75;3.97;;;;;;;28.88;41.88;99035.53;4500428;31;33690;-63
2023/07/20 03:39:11;;;;;;;5.40;3.33;;;;;;;28.85;41.81;99038.00;4500665;31;33795;-63
2023/07/20 03:41:39;;;;;;;7.45;3.65;;;;;;;28.84;41.94;99044.62;4500622;31;34730;-63
2023/07/20 03:44:06;;;;;;;6.55;3.08;;;;;;;28.82;42.00;99047.66;4500603;31;34043;-62
2023/07/20 03:46:34;;;;;;;6.80;3.58;;;;;;;28.80;41.77;99060.00;4500580;31;33453;-63
2023/07/20 03:49:03;;;;;;;6.20;3.45;;;;;;;28.78;41.97;99063.03;4500524;31;34621;-63
2023/07/20 03:51:30;;;;;;;6.75;3.60;;;;;;;28.79;41.86;99058.38;4500701;31;33776;-62
2023/07/20 03:53:58;;;;;;;14.48;4.20;;;;;;;28.78;41.81;99057.53;4500491;31;34041;-63
2023/07/20 03:56:26;;;;;;;7.10;3.33;;;;;;;28.79;41.96;99058.38;4500535;31;33175;-63
2023/07/20 03:58:54;;;;;;;7.62;3.45;;;;;;;28.79;41.94;99052.88;4499693;31;33466;-63
2023/07/20 04:01:21;;;;;;;7.93;3.78;;;;;;;28.79;42.01;99050.94;4484392;32;34521;-63
2023/07/20 04:03:49;;;;;;;7.78;3.80;;;;;;;28.80;41.90;99055.34;4484567;32;34165;-62
2023/07/20 04:06:17;;;;;;;7.65;3.12;;;;;;;28.81;41.88;99059.72;4484936;32;33067;-62
2023/07/20 04:08:47;;;;;;;8.10;3.37;;;;;;;28.82;41.90;99057.78;4484617;32;34623;-63
2023/07/20 04:11:15;;;;;;;;;;;;;;;28.82;41.74;99058.63;4484801;32;33688;-62
2023/07/20 04:13:42;;;;;;;11.40;3.67;;;;;;;28.92;41.40;99049.53;4484540;32;34117;-62
2023/07/20 04:16:10;;;;;;;8.80;3.53;;;;;;;28.81;41.10;99045.97;4484595;32;34425;-63
2023/07/20 04:18:38;;;;;;;7.75;3.90;;;;;;;28.79;41.17;99044.62;4484333;32;34601;-62
2023/07/20 04:21:07;;;;;;;7.37;3.50;;;;;;;28.79;40.70;99036.41;4484501;32;33637;-62
2023/07/20 04:23:36;;;;;;;6.10;2.97;;;;;;;28.76;40.61;99037.78;4484585;31;34086;-61
2023/07/20 04:26:03;;;;;;;5.75;3.40;;;;;;;28.76;40.53;99025.97;4484650;32;33529;-60
2023/07/20 04:28:31;;;;;;;5.40;2.90;;;;;;;28.75;40.51;99025.16;4484742;32;34399;-61
2023/07/20 04:31:12;;;;;;;8.43;3.17;;;;;;;28.76;40.36;99023.22;4484494;32;33983;-61
2023/07/20 04:33:40;;;;;;;6.75;3.22;;;;;;;28.77;40.41;99028.41;4484761;32;33798;-59
2023/07/20 04:36:07;;;;;;;6.85;3.30;;;;;;;28.75;40.44;99029.81;4484824;32;33200;-62
2023/07/20 04:38:35;;;;;;;5.25;3.37;;;;;;;28.75;40.46;99038.88;4495249;31;34070;-63
2023/07/20 04:41:03;;;;;;;7.12;3.72;;;;;;;28.74;40.38;99037.25;4500192;31;33837;-61
2023/07/20 04:43:31;;;;;;;8.98;3.53;;;;;;;28.76;40.34;99036.94;4498442;31;34389;-56
2023/07/20 04:45:59;;;;;;;6.80;3.40;;;;;;;28.74;40.37;99037.25;4497041;31;34320;-53
2023/07/20 04:48:29;;;;;;;9.02;3.72;;;;;;;28.76;40.55;99032.28;4498542;31;34657;-53
2023/07/20 04:50:56;;;;;;;8.70;3.60;;;;;;;28.80;40.69;99049.03;4499431;31;35230;-57
2023/07/20 04:53:25;;;;;;;7.03;3.10;;;;;;;28.81;40.79;99040.50;4499917;31;34165;-51
2023/07/20 04:55:54;;;;;;;4.95;2.87;;;;;;;28.85;40.88;99035.28;4499293;31;33365;-52
2023/07/20 04:58:22;;;;;;;6.67;3.23;;;;;;;28.87;40.89;99038.56;4497012;31;34034;-54
2023/07/20 05:00:50;;;;;;;8.55;3.70;;;;;;;28.90;40.94;99046.22;4499510;31;33932;-56
2023/07/20 05:03:18;;;;;;;6.12;3.28;;;;;;;28.93;40.98;99042.94;4499625;31;34070;-50
2023/07/20 05:05:47;;;;;;;6.95;3.25;;;;;;;28.94;40.96;99050.88;4499652;31;33743;-54
2023/07/20 05:08:16;;;;;;;6.80;3.62;;;;;;;28.96;40.94;99043.22;4499723;31;33925;-53
2023/07/20 05:10:44;;;;;;;6.82;3.83;;;;;;;29.00;40.94;99048.94;4499742;31;33837;-56
2023/07/20 05:13:12;;;;;;;7.80;3.35;;;;;;;29.01;40.94;99042.38;4498977;31;34482;-52
2023/07/20 05:15:40;;;;;;;5.97;3.45;;;;;;;29.04;40.98;99049.22;4499704;31;33422;-56
2023/07/20 05:18:08;;;;;;;13.85;3.67;;;;;;;29.05;40.93;99054.44;4499746;31;33990;-52
2023/07/20 05:20:37;;;;;;;6.80;3.60;;;;;;;29.07;40.96;99049.47;4499668;31;33805;-53
2023/07/20 05:23:05;;;;;;;6.07;3.62;;;;;;;29.09;40.94;99058.25;4499304;31;34872;-50
2023/07/20 05:25:33;;;;;;;6.78;3.83;;;;;;;29.10;40.93;99053.56;4499524;31;34510;-51
2023/07/20 05:28:00;;;;;;;5.12;3.20;;;;;;;29.12;40.96;99056.87;4499521;31;34657;-53
2023/07/20 05:30:29;;;;;;;5.87;3.37;;;;;;;29.14;40.97;99054.66;4499231;31;33239;-56
2023/07/20 05:32:56;;;;;;;6.80;3.28;;;;;;;29.14;41.02;99049.16;4499419;31;34023;-50
2023/07/20 05:35:25;;;;;;;6.15;3.17;;;;;;;29.16;41.00;99057.97;4499398;31;34394;-51
2023/07/20 05:37:53;;;;;;;7.27;3.97;;;;;;;29.16;41.03;99058.78;4498968;31;33793;-58
2023/07/20 05:40:21;;;;;;;6.32;3.62;;;;;;;29.19;41.06;99058.22;4484419;31;33926;-53
2023/07/20 05:42:51;;;;;;;8.35;3.42;;;;;;;29.19;41.08;99057.38;4499210;31;33941;-53
2023/07/20 05:45:19;;;;;;;6.12;3.30;;;;;;;29.20;41.10;99059.84;4499238;31;33491;-53
2023/07/20 05:47:47;;;;;;;6.03;3.45;;;;;;;29.21;41.15;99061.50;4499020;31;33919;-54
2023/07/20 05:50:15;;;;;;;7.68;3.45;;;;;;;29.21;41.16;99053.25;4498996;31;34607;-55
2023/07/20 05:52:42;;;;;;;5.60;2.95;;;;;;;29.22;41.18;99057.63;4497910;31;34111;-50
2023/07/20 05:55:10;;;;;;;6.25;3.30;;;;;;;29.25;41.21;99066.44;4499098;31;33656;-57
2023/07/20 05:57:41;;;;;;;5.82;3.62;;;;;;;29.24;41.18;99062.87;4498876;31;34529;-55
2023/07/20 06:00:10;;;;;;;7.07;3.42;;;;;;;29.26;41.23;99068.06;4498276;31;33977;-57
2023/07/20 06:02:42;;;;;;;7.43;3.12;;;;;;;29.26;41.18;99060.66;4498816;31;34074;-53
2023/07/20 06:05:10;;;;;;;7.32;3.50;;;;;;;29.27;41.22;99070.53;4498574;31;34053;-56
2023/07/20 06:07:38;;;;;;;6.15;3.30;;;;;;;29.27;41.27;99066.97;4498816;31;33747;-54
2023/07/20 06:10:06;;;;;;;6.85;3.55;;;;;;;29.27;41.32;99075.19;4497697;31;33694;-58
2023/07/20 06:12:34;;;;;;;9.85;3.83;;;;;;;29.27;41.08;99078.78;4498782;31;34254;-53
2023/07/20 06:15:03;;;;;;;7.80;3.70;;;;;;;29.26;40.70;99082.62;4498648;31;34467;-54
2023/07/20 06:17:32;;;;;;;7.47;3.70;;;;;;;29.25;40.54;99089.22;4498318;31;34180;-60
2023/07/20 06:20:00;;;;;;;8.00;4.35;;;;;;;29.25;40.22;99078.25;4498641;31;33672;-56
2023/07/20 06:22:28;;;;;;;12.50;4.40;;;;;;;29.23;40.02;99084.00;4498613;31;34137;-56
2023/07/20 06:24:56;;;;;;;8.55;4.18;;;;;;;29.23;39.96;99092.25;4500755;31;34339;-49
2023/07/20 06:27:23;;;;;;;6.95;4.00;;;;;;;29.23;39.77;99089.50;4501056;31;33919;-56
2023/07/20 06:29:51;;;;;;;7.62;4.28;;;;;;;29.24;39.73;99090.34;4501106;31;33860;-58
2023/07/20 06:32:18;;;;;;;9.48;3.90;;;;;;;29.22;39.63;99095.28;4500906;31;33986;-54
2023/07/20 06:34:47;;;;;;;7.03;4.32;;;;;;;29.21;39.62;99093.66;4501135;31;33733;-56
2023/07/20 06:37:14;;;;;;;7.03;3.85;;;;;;;29.21;39.50;99096.38;4501165;31;33898;-56
2023/07/20 06:39:42;;;;;;;6.22;4.12;;;;;;;29.20;39.45;99101.06;4500881;31;33697;-58
2023/07/20 06:42:12;;;;;;;7.60;4.00;;;;;;;29.21;39.54;99105.47;4500461;31;34385;-50
2023/07/20 06:44:40;;;;;;;7.65;4.55;;;;;;;29.20;39.49;99105.75;4500734;31;33962;-59
2023/07/20 06:47:08;;;;;;;8.63;4.62;;;;;;;29.21;39.32;99110.94;4500854;31;34794;-58
2023/07/20 06:49:35;;;;;;;7.75;4.57;;;;;;;29.20;39.24;99117.56;4500891;31;33793;-49
2023/07/20 06:52:03;;;;;;;8.88;4.37;;;;;;;29.19;39.27;99123.31;4501210;31;34064;-56
2023/07/20 06:54:31;;;;;;;7.37;4.28;;;;;;;29.18;39.35;99118.94;4501167;31;34738;-59
2023/07/20 06:57:02;;;;;;;9.38;4.50;;;;;;;29.20;39.29;99124.97;4500979;31;34336;-53
2023/07/20 06:59:45;;;;;;;9.73;4.70;;;;;;;29.21;39.21;99129.38;4493221;31;33927;-60
2023/07/20 07:02:17;;;;;;;7.05;4.18;;;;;;;29.20;38.92;99123.06;4485105;32;34011;-60
2023/07/20 07:04:49;;;;;;;7.15;4.47;;;;;;;29.20;39.07;99114.00;4484875;32;33452;-59
2023/07/20 07:07:25;;;;;;;7.50;4.32;;;;;;;29.20;38.88;99117.56;4485032;32;33613;-59
2023/07/20 07:09:54;;;;;;;10.60;4.93;;;;;;;29.21;38.63;99119.19;4485140;32;33711;-60
2023/07/20 07:12:21;;;;;;;6.93;4.05;;;;;;;29.22;38.33;99122.75;4485063;32;34168;-51
2023/07/20 07:14:49;;;;;;;8.20;4.07;;;;;;;29.20;38.30;99125.78;4485230;32;33725;-57
2023/07/20 07:17:17;;;;;;;7.05;3.85;;;;;;;29.20;37.81;99128.53;4484757;32;33774;-56
2023/07/20 07:19:46;;;;;;;8.23;4.12;;;;;;;29.20;37.49;99124.97;4485042;31;34020;-58
2023/07/20 07:22:16;;;;;;;7.05;3.70;;;;;;;29.20;37.14;99124.97;4491684;31;35097;-59
2023/07/20 07:24:44;;;;;;;7.35;3.42;;;;;;;29.20;36.98;99127.72;4490949;31;34586;-54
2023/07/20 07:27:12;;;;;;;9.55;3.90;;;;;;;29.21;36.44;99123.87;4484591;32;33904;-49
2023/07/20 07:29:39;;;;;;;9.02;4.03;;;;;;;29.19;36.05;99129.66;4484791;32;34770;-53
2023/07/20 07:32:10;;;;;;;10.65;4.10;;;;;;;29.20;35.97;99130.47;4484551;32;34390;-48
2023/07/20 07:34:37;;;;;;;6.35;3.50;;;;;;;29.22;35.70;99129.06;4484297;32;33568;-51
2023/07/20 07:37:05;;;;;;;7.65;3.87;;;;;;;29.25;35.41;99129.63;4484877;32;33987;-49
2023/07/20 07:39:32;;;;;;;6.43;3.75;;;;;;;29.23;35.20;99136.19;4486875;31;34204;-56
2023/07/20 07:42:02;;;;;;;8.55;3.22;;;;;;;29.22;35.11;99134.56;4486864;31;33754;-54
2023/07/20 07:44:30;;;;;;;11.27;4.00;;;;;;;29.25;35.06;99133.19;4484777;32;33712;-57
2023/07/20 07:46:57;;;;;;;8.60;3.40;;;;;;;29.29;35.05;99133.47;4484696;32;34625;-54
2023/07/20 07:49:25;;;;;;;5.82;3.28;;;;;;;29.28;35.38;99140.03;4484750;32;34580;-53
2023/07/20 07:51:53;;;;;;;7.68;3.60;;;;;;;29.28;35.69;99135.34;4484839;32;33695;-56
2023/07/20 07:54:20;;;;;;;7.93;3.55;;;;;;;29.28;35.91;99131.78;4484753;32;34369;-52
2023/07/20 07:56:48;;;;;;;11.63;3.60;;;;;;;29.29;35.98;99137.03;4484837;32;33319;-52
2023/07/20 07:59:16;;;;;;;6.10;3.65;;;;;;;29.30;36.10;99124.09;4487641;31;34927;-52
2023/07/20 08:01:43;;;;;;;6.60;3.22;;;;;;;29.31;36.24;99131.25;4499918;31;34173;-54
2023/07/20 08:04:11;;;;;;;6.18;3.35;;;;;;;29.33;36.34;99137.25;4500410;31;33250;-56
2023/07/20 08:06:39;;;;;;;7.57;3.42;;;;;;;29.32;36.50;99130.94;4494868;31;33862;-57
2023/07/20 08:09:07;;;;;;;7.05;3.55;;;;;;;29.34;36.67;99138.94;4500378;31;33737;-54
2023/07/20 08:11:35;;;;;;;8.25;3.80;;;;;;;29.35;37.39;99143.31;4499986;31;34431;-57
2023/07/20 08:14:03;;;;;;;6.78;3.22;;;;;;;29.37;37.83;99146.59;4500424;31;33516;-54
2023/07/20 08:16:30;;;;;;;8.88;3.60;;;;;;;29.38;38.11;99157.31;4500539;31;33486;-58
2023/07/20 08:18:58;;;;;;;6.05;3.30;;;;;;;29.40;38.36;99148.78;4500270;31;34692;-55
2023/07/20 08:21:26;;;;;;;6.37;3.47;;;;;;;29.41;38.60;99148.50;4490283;31;34183;-53
2023/07/20 08:23:53;;;;;;;5.80;3.45;;;;;;;29.42;38.70;99157.56;4492492;31;32141;-55
2023/07/20 08:26:22;;;;;;;6.97;3.50;;;;;;;29.43;38.67;99157.28;4494167;31;33884;-57
2023/07/20 08:28:50;;;;;;;8.15;3.75;;;;;;;29.43;38.89;99157.28;4500239;31;33779;-56
2023/07/20 08:31:18;;;;;;;7.72;3.60;;;;;;;29.47;38.95;99154.78;4499848;31;34721;-49
2023/07/20 08:33:46;;;;;;;6.68;3.47;;;;;;;29.47;39.10;99152.03;4500248;31;33113;-53
2023/07/20 08:36:13;;;;;;;7.50;3.30;;;;;;;29.47;39.23;99168.53;4499070;31;33949;-55
2023/07/20 08:38:42;;;;;;;8.70;3.67;;;;;;;29.47;39.38;99165.78;4491575;31;34092;-57
2023/07/20 08:41:10;;;;;;;9.10;3.75;;;;;;;29.49;39.52;99169.09;4492458;31;34929;-57
2023/07/20 08:43:37;;;;;;;5.93;3.50;;;;;;;29.48;39.53;99172.94;4490479;31;33583;-57
2023/07/20 08:46:05;;;;;;;5.93;3.53;;;;;;;29.49;39.64;99182.81;4476149;31;33701;-51
2023/07/20 08:48:33;;;;;;;7.03;3.40;;;;;;;29.50;39.84;99181.72;4485766;31;33870;-54
2023/07/20 08:51:00;;;;;;;5.60;2.92;;;;;;;29.50;39.94;99178.97;4498801;31;35118;-57
2023/07/20 08:53:28;;;;;;;6.25;3.08;;;;;;;29.50;40.03;99178.97;4498664;31;33784;-53
2023/07/20 08:55:56;;;;;;;6.65;3.37;;;;;;;29.49;40.14;99186.41;4485909;31;33720;-54
2023/07/20 08:58:25;;;;;;;7.32;3.05;;;;;;;29.50;40.15;99184.47;4485762;31;34024;-55
2023/07/20 09:00:53;;;;;;;10.82;3.85;;;;;;;29.51;40.15;99179.78;4484674;31;33227;-54
2023/07/20 09:03:21;;;;;;;8.52;3.20;;;;;;;29.53;40.28;99188.59;4489547;31;33379;-55
2023/07/20 09:05:49;;;;;;;7.12;3.80;;;;;;;29.53;40.38;99197.66;4498585;31;34689;-56
2023/07/20 09:08:17;;;;;;;8.50;3.40;;;;;;;29.55;40.47;99202.88;4499709;31;33883;-57
2023/07/20 09:10:45;;;;;;;5.82;3.42;;;;;;;29.55;40.46;99192.72;4499940;31;34122;-57
2023/07/20 09:13:15;;;;;;;6.53;3.20;;;;;;;29.55;40.53;99205.63;4499937;31;34396;-58
2023/07/20 09:15:47;;;;;;;5.90;2.80;;;;;;;29.56;40.62;99210.03;4494915;31;33672;-57
2023/07/20 09:18:23;;;;;;;5.35;3.12;;;;;;;29.55;40.54;99202.88;4484055;31;33610;-59
2023/07/20 09:20:51;;;;;;;6.65;3.40;;;;;;;29.57;40.49;99200.69;4490471;31;33861;-57
2023/07/20 09:23:19;;;;;;;8.07;3.17;;;;;;;29.56;40.52;99201.78;4499066;31;33536;-61
2023/07/20 09:25:50;;;;;;;11.65;3.90;;;;;;;29.54;40.53;99193.78;4499696;31;34431;-58
2023/07/20 09:28:18;;;;;;;12.07;3.80;;;;;;;29.55;40.52;99192.72;4499659;31;33539;-58
2023/07/20 09:30:45;;;;;;;8.80;3.35;;;;;;;29.55;40.65;99184.47;4498268;31;34821;-59
2023/07/20 09:33:24;;;;;;;8.15;3.47;;;;;;;29.55;40.68;99198.22;4490708;31;33264;-57
2023/07/20 09:36:02;;;;;;;6.97;3.37;;;;;;;29.55;40.65;99192.72;4484006;32;34526;-62
2023/07/20 09:38:49;;;;;;;7.60;3.53;;;;;;;29.56;40.62;99193.53;4482660;32;34763;-60
2023/07/20 09:41:21;;;;;;;7.25;3.08;;;;;;;29.58;40.86;99191.34;4482557;32;34721;-61
2023/07/20 09:43:51;;;;;;;6.68;3.40;;;;;;;29.57;40.81;99190.53;4489076;31;33513;-61
2023/07/20 09:46:20;;;;;;;11.90;3.42;;;;;;;29.59;40.75;99199.28;4497416;31;33577;-60
2023/07/20 09:48:53;;;;;;;6.78;3.75;;;;;;;29.60;40.84;99194.63;4499443;31;34105;-59
2023/07/20 09:51:24;;;;;;;10.07;3.40;;;;;;;29.60;40.89;99195.44;4498120;31;34115;-61
2023/07/20 09:53:52;;;;;;;7.00;3.53;;;;;;;29.60;40.92;99184.44;4499075;31;34414;-61
2023/07/20 09:56:21;;;;;;;7.35;3.17;;;;;;;29.62;40.93;99197.91;4499033;31;33829;-60
2023/07/20 09:58:48;;;;;;;7.68;3.10;;;;;;;29.61;40.97;99205.34;4500381;31;33708;-56
2023/07/20 10:01:18;;;;;;;6.82;3.10;;;;;;;29.63;40.95;99196.81;4500272;31;33979;-62
2023/07/20 10:03:45;;;;;;;7.05;3.03;;;;;;;29.64;41.10;99203.94;4484847;31;33768;-61
2023/07/20 10:06:15;;;;;;;5.00;3.08;;;;;;;29.66;41.03;99201.75;4486847;31;34317;-59
2023/07/20 10:08:42;;;;;;;5.90;3.17;;;;;;;29.65;41.07;99222.91;4500196;31;33666;-60
2023/07/20 10:11:15;;;;;;;9.15;3.20;;;;;;;29.68;41.08;99210.53;4487231;31;33666;-60
2023/07/20 10:13:43;;;;;;;8.60;3.45;;;;;;;29.65;41.11;99186.34;4500141;31;34363;-60
2023/07/20 10:16:22;;;;;;;5.28;3.12;;;;;;;29.66;40.90;99194.31;4501084;31;33905;-61
2023/07/20 10:19:17;;;;;;;7.68;3.05;;;;;;;29.68;40.66;99191.28;4499702;31;34997;-58
2023/07/20 10:21:48;;;;;;;5.87;2.78;;;;;;;29.70;40.41;99197.31;4496669;31;34155;-60
2023/07/20 10:24:23;;;;;;;8.90;3.47;;;;;;;29.67;40.30;99193.22;4487762;31;34411;-59
2023/07/20 10:26:51;;;;;;;5.10;2.78;;;;;;;29.67;40.31;99195.16;4501374;31;33988;-60
2023/07/20 10:29:19;;;;;;;7.72;3.25;;;;;;;29.67;40.31;99193.22;4499679;31;34112;-56
2023/07/20 10:31:47;;;;;;;4.47;2.60;;;;;;;29.67;40.22;99195.16;4486738;31;34750;-59
2023/07/20 10:34:14;;;;;;;6.28;2.95;;;;;;;29.66;40.03;99210.00;4483892;32;33575;-53
2023/07/20 10:36:46;;;;;;;7.55;2.87;;;;;;;29.66;39.90;99199.00;4485312;32;33919;-58
2023/07/20 10:39:28;;;;;;;6.57;3.08;;;;;;;29.68;40.07;99192.09;4485544;32;34045;-58
2023/07/20 10:42:08;;;;;;;5.43;2.40;;;;;;;29.69;40.14;99187.41;4486263;32;34158;-58
2023/07/20 10:44:39;;;;;;;6.65;2.95;;;;;;;29.70;40.23;99194.56;4485311;32;34451;-58
2023/07/20 10:47:11;;;;;;;5.78;2.58;;;;;;;29.67;40.31;99184.16;4485992;32;34391;-58
2023/07/20 10:50:01;;;;;;;7.07;3.10;;;;;;;29.66;40.36;99180.56;4485924;32;33684;-58
2023/07/20 10:52:52;;;;;;;;;;;;;;;29.69;40.36;99180.00;4485358;32;33664;-58
2023/07/20 10:55:21;;;;;;;5.45;2.70;;;;;;;29.77;40.21;99175.84;4485154;31;33414;-58
2023/07/20 10:58:11;;;;;;;5.97;2.72;;;;;;;29.68;40.42;99186.59;4485229;32;33528;-58
2023/07/20 11:01:01;;;;;;;5.93;2.75;;;;;;;29.70;40.48;99186.31;4485129;32;33810;-57
2023/07/20 11:03:31;;;;;;;5.53;2.95;;;;;;;29.68;40.56;99181.09;4491731;31;34564;-63
2023/07/20 11:06:26;;;;;;;6.03;2.90;;;;;;;29.65;40.67;99184.41;4500876;31;33498;-56
2023/07/20 11:09:10;;;;;;;7.32;2.90;;;;;;;29.67;40.62;99173.97;4501126;31;33913;-58
2023/07/20 11:11:39;;;;;;;6.25;2.62;;;;;;;29.68;40.61;99186.59;4500451;31;34174;-48
2023/07/20 11:14:08;;;;;;;6.03;3.17;;;;;;;29.65;40.74;99184.41;4500874;31;34213;-59
2023/07/20 11:16:39;;;;;;;4.82;2.42;;;;;;;29.64;40.79;99195.69;4500759;31;33645;-58
2023/07/20 11:19:15;;;;;;;5.97;2.72;;;;;;;29.65;40.78;99203.66;4500935;31;34016;-58
2023/07/20 11:22:03;;;;;;;5.72;2.67;;;;;;;29.66;40.82;99190.75;4500917;31;34561;-54
2023/07/20 11:24:31;;;;;;;3.72;2.20;;;;;;;29.66;40.87;99188.00;4472856;32;33902;-58
2023/07/20 11:26:59;;;;;;;4.37;2.60;;;;;;;29.66;40.91;99182.50;4484848;32;34585;-58
2023/07/20 11:29:27;;;;;;;4.50;2.40;;;;;;;29.66;40.94;99188.00;4485164;32;34592;-55
2023/07/20 11:32:01;;;;;;;4.80;2.58;;;;;;;29.66;40.95;99193.50;4484843;32;33699;-57
2023/07/20 11:34:32;;;;;;;5.07;2.30;;;;;;;29.65;41.00;99195.41;4484751;32;34322;-58
2023/07/20 11:37:00;;;;;;;5.15;2.90;;;;;;;29.65;41.01;99195.41;4485045;32;33681;-54
2023/07/20 11:39:30;;;;;;;5.95;2.40;;;;;;;29.65;41.07;99187.16;4471219;32;34077;-54
2023/07/20 11:41:58;;;;;;;5.70;2.45;;;;;;;29.65;41.05;99189.91;4484891;32;34062;-53
2023/07/20 11:44:26;;;;;;;4.00;2.25;;;;;;;29.65;41.07;99192.66;4484737;32;34798;-54
2023/07/20 11:47:09;;;;;;;4.32;2.15;;;;;;;29.64;41.12;99199.28;4470889;32;34254;-57